createdAt,value
2023-03-03T00:01:28.657Z,39.92
2023-03-03T00:03:56.515Z,40.10
2023-03-03T00:06:24.789Z,39.00
2023-03-03T00:08:52.916Z,40.85
2023-03-03T00:11:22.112Z,40.33
2023-03-03T00:13:52.770Z,40.60
2023-03-03T00:16:26.237Z,39.90
2023-03-03T00:18:54.880Z,41.20
2023-03-03T00:21:30.102Z,38.97
2023-03-03T00:24:20.388Z,40.30
2023-03-03T00:26:51.260Z,39.40
2023-03-03T00:29:32.614Z,48.80
2023-03-03T00:32:24.491Z,39.50
2023-03-03T00:34:53.276Z,40.13
2023-03-03T00:37:33.200Z,40.45
2023-03-03T00:40:20.095Z,41.20
2023-03-03T00:42:52.328Z,39.88
2023-03-03T00:45:32.376Z,40.25
2023-03-03T00:48:09.220Z,39.40
2023-03-03T00:50:41.015Z,42.42
2023-03-03T00:53:13.264Z,40.10
2023-03-03T00:55:41.452Z,41.85
2023-03-03T00:58:11.187Z,41.15
2023-03-03T01:00:39.242Z,41.40
2023-03-03T01:03:08.995Z,39.40
2023-03-03T01:05:37.774Z,41.80
2023-03-03T01:08:05.919Z,41.60
2023-03-03T01:10:36.570Z,41.67
2023-03-03T01:13:05.182Z,40.05
2023-03-03T01:15:34.622Z,40.20
2023-03-03T01:18:02.814Z,41.50
2023-03-03T01:20:30.799Z,40.40
2023-03-03T01:22:58.627Z,40.70
2023-03-03T01:25:26.502Z,40.80
2023-03-03T01:27:54.392Z,42.25
2023-03-03T01:30:22.560Z,41.72
2023-03-03T01:32:51.895Z,42.22
2023-03-03T01:35:20.231Z,41.00
2023-03-03T01:37:48.056Z,40.50
2023-03-03T01:40:19.519Z,40.10
2023-03-03T01:42:47.430Z,41.40
2023-03-03T01:45:21.585Z,40.65
2023-03-03T01:48:02.629Z,41.00
2023-03-03T01:50:39.525Z,40.20
2023-03-03T01:53:14.534Z,40.38
2023-03-03T01:55:44.548Z,40.45
2023-03-03T01:58:16.915Z,40.73
2023-03-03T02:00:50.456Z,42.33
2023-03-03T02:03:21.173Z,42.55
2023-03-03T02:05:50.482Z,42.30
2023-03-03T02:08:23.163Z,40.30
2023-03-03T02:10:52.426Z,40.80
2023-03-03T02:13:20.314Z,40.73
2023-03-03T02:15:48.293Z,40.65
2023-03-03T02:18:19.894Z,42.20
2023-03-03T02:20:55.223Z,41.03
2023-03-03T02:23:28.195Z,40.88
2023-03-03T02:26:11.330Z,40.78
2023-03-03T02:28:41.092Z,42.50
2023-03-03T02:31:13.193Z,41.42
2023-03-03T02:33:41.339Z,40.00
2023-03-03T02:36:13.512Z,40.80
2023-03-03T02:38:45.621Z,40.93
2023-03-03T02:41:22.205Z,40.90
2023-03-03T02:43:54.706Z,40.63
2023-03-03T02:46:22.582Z,40.50
2023-03-03T02:48:50.437Z,41.90
2023-03-03T02:51:18.357Z,42.35
2023-03-03T02:53:46.259Z,41.00
2023-03-03T02:56:15.401Z,40.40
2023-03-03T02:58:43.276Z,44.42
2023-03-03T03:01:11.809Z,40.13
2023-03-03T03:03:39.868Z,41.08
2023-03-03T03:06:08.226Z,40.88
2023-03-03T03:08:36.106Z,40.83
2023-03-03T03:11:05.723Z,40.50
2023-03-03T03:13:35.266Z,40.03
2023-03-03T03:16:03.140Z,40.87
2023-03-03T03:18:31.075Z,41.22
2023-03-03T03:20:58.912Z,41.08
2023-03-03T03:23:26.792Z,41.17
2023-03-03T03:25:54.631Z,41.83
2023-03-03T03:28:22.430Z,41.88
2023-03-03T03:30:52.418Z,42.08
2023-03-03T03:33:20.226Z,41.30
2023-03-03T03:35:48.266Z,40.40
2023-03-03T03:38:16.199Z,39.95
2023-03-03T03:40:44.810Z,40.70
2023-03-03T03:43:12.610Z,40.40
2023-03-03T03:45:40.472Z,40.67
2023-03-03T03:48:09.644Z,40.80
2023-03-03T03:50:38.531Z,41.25
2023-03-03T03:53:06.473Z,40.70
2023-03-03T03:55:34.508Z,40.80
2023-03-03T03:58:02.336Z,40.78
2023-03-03T04:00:30.317Z,41.88
2023-03-03T04:02:58.449Z,41.17
2023-03-03T04:05:27.722Z,43.20
2023-03-03T04:07:55.542Z,40.33
2023-03-03T04:10:23.458Z,42.58
2023-03-03T04:12:51.305Z,40.60
2023-03-03T04:15:19.227Z,40.90
2023-03-03T04:17:47.303Z,40.70
2023-03-03T04:20:16.429Z,40.78
2023-03-03T04:22:45.762Z,41.40
2023-03-03T04:25:16.360Z,40.97
2023-03-03T04:27:45.505Z,40.95
2023-03-03T04:30:15.897Z,41.22
2023-03-03T04:32:43.956Z,41.13
2023-03-03T04:35:12.209Z,41.25
2023-03-03T04:37:40.473Z,40.30
2023-03-03T04:40:11.253Z,42.20
2023-03-03T04:42:39.104Z,41.60
2023-03-03T04:45:08.140Z,40.92
2023-03-03T04:47:36.107Z,40.92
2023-03-03T04:50:03.951Z,41.60
2023-03-03T04:52:31.918Z,40.83
2023-03-03T04:54:59.917Z,40.65
2023-03-03T04:57:29.166Z,41.42
2023-03-03T04:59:56.995Z,40.83
2023-03-03T05:02:24.862Z,43.20
2023-03-03T05:04:52.821Z,43.50
2023-03-03T05:07:20.878Z,40.70
2023-03-03T05:09:48.760Z,40.72
2023-03-03T05:12:17.140Z,41.85
2023-03-03T05:14:46.334Z,41.17
2023-03-03T05:17:14.322Z,40.40
2023-03-03T05:19:42.330Z,41.75
2023-03-03T05:22:10.305Z,41.10
2023-03-03T05:24:38.138Z,41.22
2023-03-03T05:27:05.969Z,41.80
2023-03-03T05:29:33.815Z,41.95
2023-03-03T05:32:03.031Z,42.35
2023-03-03T05:34:30.862Z,41.00
2023-03-03T05:36:58.666Z,41.30
2023-03-03T05:39:26.528Z,42.55
2023-03-03T05:41:55.872Z,42.20
2023-03-03T05:44:23.680Z,41.15
2023-03-03T05:46:51.541Z,41.25
2023-03-03T05:49:20.733Z,41.92
2023-03-03T05:51:48.527Z,41.00
2023-03-03T05:54:16.352Z,41.05
2023-03-03T05:56:44.298Z,39.70
2023-03-03T05:59:12.094Z,43.28
2023-03-03T06:01:40.030Z,40.00
2023-03-03T06:04:08.429Z,41.08
2023-03-03T06:06:38.022Z,39.92
2023-03-03T06:09:06.262Z,41.72
2023-03-03T06:11:34.127Z,40.50
2023-03-03T06:14:01.950Z,40.45
2023-03-03T06:16:30.077Z,40.47
2023-03-03T06:18:57.903Z,43.90
2023-03-03T06:21:26.337Z,41.20
2023-03-03T06:23:55.607Z,41.10
2023-03-03T06:26:23.722Z,40.55
2023-03-03T06:28:54.002Z,43.42
2023-03-03T06:31:21.889Z,40.80
2023-03-03T06:33:49.870Z,40.67
2023-03-03T06:36:17.696Z,40.40
2023-03-03T06:38:45.622Z,42.03
2023-03-03T06:41:14.736Z,41.30
2023-03-03T06:43:42.553Z,41.78
2023-03-03T06:46:10.563Z,41.00
2023-03-03T06:48:38.852Z,42.13
2023-03-03T06:51:21.145Z,41.22
2023-03-03T06:53:49.786Z,40.53
2023-03-03T06:56:19.609Z,42.20
2023-03-03T06:58:47.429Z,41.70
2023-03-03T07:01:18.245Z,40.85
2023-03-03T07:03:47.392Z,41.53
2023-03-03T07:06:24.346Z,42.35
2023-03-03T07:08:52.700Z,44.10
2023-03-03T07:11:24.088Z,42.60
2023-03-03T07:13:53.214Z,41.07
2023-03-03T07:16:27.165Z,42.23
2023-03-03T07:18:58.332Z,42.13
2023-03-03T07:21:32.507Z,41.58
2023-03-03T07:24:11.371Z,41.05
2023-03-03T07:26:40.608Z,41.30
2023-03-03T07:29:22.611Z,53.03
2023-03-03T07:31:51.939Z,41.60
2023-03-03T07:34:22.965Z,41.00
2023-03-03T07:36:53.577Z,39.85
2023-03-03T07:39:30.449Z,43.08
2023-03-03T07:42:08.587Z,40.65
2023-03-03T07:44:37.819Z,40.87
2023-03-03T07:47:20.293Z,41.00
2023-03-03T07:49:49.571Z,42.33
2023-03-03T07:52:40.198Z,42.50
2023-03-03T07:55:31.926Z,41.53
2023-03-03T07:58:20.982Z,42.20
2023-03-03T08:01:28.075Z,44.58
2023-03-03T08:03:56.512Z,42.20
2023-03-03T08:06:45.686Z,41.25
2023-03-03T08:09:46.860Z,41.70
2023-03-03T08:12:38.332Z,43.20
2023-03-03T08:15:18.988Z,40.03
2023-03-03T08:17:47.696Z,40.37
2023-03-03T08:20:46.124Z,37.53
2023-03-03T08:38:24.146Z,44.40
2023-03-03T08:40:52.054Z,40.80
2023-03-03T08:43:21.624Z,38.27
2023-03-03T08:45:50.888Z,36.10
2023-03-03T08:48:19.486Z,36.17
2023-03-03T08:50:48.034Z,36.67
2023-03-03T08:53:16.667Z,37.03
2023-03-03T08:55:47.246Z,36.67
2023-03-03T08:58:15.708Z,38.40
2023-03-03T09:00:43.712Z,37.83
2023-03-03T09:03:11.556Z,37.03
2023-03-03T09:05:41.471Z,36.83
2023-03-03T09:08:10.679Z,37.50
2023-03-03T09:10:38.648Z,39.20
2023-03-03T09:13:14.498Z,38.03
2023-03-03T09:15:42.813Z,37.20
2023-03-03T09:18:16.406Z,38.13
2023-03-03T09:20:45.652Z,39.83
2023-03-03T09:23:33.879Z,38.20
2023-03-03T09:26:23.158Z,37.03
2023-03-03T09:28:52.335Z,46.40
2023-03-03T09:31:26.901Z,37.33
2023-03-03T09:33:57.715Z,40.97
2023-03-03T09:36:28.823Z,38.53
2023-03-03T09:38:58.411Z,42.88
2023-03-03T09:41:47.930Z,39.28
2023-03-03T09:44:31.386Z,38.53
2023-03-03T09:47:15.901Z,40.97
2023-03-03T09:49:57.761Z,40.72
2023-03-03T09:52:38.489Z,41.30
2023-03-03T09:55:19.562Z,38.33
2023-03-03T09:58:11.169Z,40.60
2023-03-03T10:00:51.032Z,41.10
2023-03-03T10:03:53.980Z,39.27
2023-03-03T10:06:28.949Z,41.35
2023-03-03T10:09:11.380Z,41.70
2023-03-03T10:11:47.731Z,40.95
2023-03-03T10:14:31.242Z,67.50
2023-03-03T10:17:10.641Z,42.53
2023-03-03T10:19:42.521Z,49.20
2023-03-03T10:22:25.499Z,42.10
2023-03-03T10:25:15.045Z,43.50
2023-03-03T10:27:56.156Z,43.35
2023-03-03T10:30:42.395Z,44.33
2023-03-03T10:33:22.604Z,52.97
2023-03-03T10:36:19.277Z,50.67
2023-03-03T10:39:04.015Z,52.60
2023-03-03T10:41:50.742Z,43.47
2023-03-03T10:44:32.984Z,44.58
2023-03-03T10:47:24.501Z,44.00
2023-03-03T10:50:02.427Z,43.30
2023-03-03T10:52:37.774Z,44.00
2023-03-03T10:55:17.486Z,44.35
2023-03-03T10:57:54.857Z,44.55
2023-03-03T11:00:25.807Z,40.77
2023-03-03T11:03:23.725Z,43.45
2023-03-03T11:05:56.672Z,42.37
2023-03-03T11:08:30.756Z,43.70
2023-03-03T11:11:08.718Z,43.20
2023-03-03T11:13:46.791Z,41.40
2023-03-03T11:16:31.232Z,41.35
2023-03-03T11:19:11.959Z,44.42
2023-03-03T11:21:47.935Z,40.37
2023-03-03T11:24:41.245Z,43.08
2023-03-03T11:27:40.342Z,43.70
2023-03-03T11:30:26.831Z,44.47
2023-03-03T11:33:03.303Z,42.65
2023-03-03T11:35:37.967Z,45.70
2023-03-03T11:38:20.666Z,45.92
2023-03-03T11:40:51.843Z,44.30
2023-03-03T11:43:36.593Z,44.30
2023-03-03T11:46:09.913Z,44.63
2023-03-03T11:48:44.724Z,44.95
2023-03-03T11:51:16.807Z,52.40
2023-03-03T11:53:57.749Z,42.53
2023-03-03T11:56:30.961Z,41.93
2023-03-03T11:59:19.720Z,56.15
2023-03-03T12:01:53.995Z,46.45
2023-03-03T12:04:26.353Z,43.90
2023-03-03T12:07:18.664Z,44.00
2023-03-03T12:09:56.169Z,44.10
2023-03-03T12:12:26.147Z,43.65
2023-03-03T12:15:19.555Z,45.25
2023-03-03T12:18:04.062Z,43.10
2023-03-03T12:20:40.343Z,41.50
2023-03-03T12:23:18.395Z,43.38
2023-03-03T12:25:51.085Z,43.25
2023-03-03T12:28:22.310Z,44.45
2023-03-03T12:31:15.016Z,45.50
2023-03-03T12:33:54.166Z,45.47
2023-03-03T12:36:36.419Z,45.15
2023-03-03T12:39:13.629Z,49.30
2023-03-03T12:41:47.086Z,44.42
2023-03-03T12:44:22.768Z,43.67
2023-03-03T12:46:58.777Z,44.22
2023-03-03T12:49:42.968Z,55.90
2023-03-03T12:52:27.754Z,46.88
2023-03-03T12:55:05.616Z,45.30
2023-03-03T12:57:43.912Z,43.75
2023-03-03T13:00:25.574Z,46.20
2023-03-03T13:03:01.640Z,53.30
2023-03-03T13:05:35.866Z,46.10
2023-03-03T13:08:31.155Z,44.60
2023-03-03T13:11:13.299Z,45.80
2023-03-03T13:13:50.208Z,45.80
2023-03-03T13:16:38.899Z,45.20
2023-03-03T13:19:13.616Z,71.95
2023-03-03T13:21:48.469Z,45.13
2023-03-03T13:24:22.799Z,46.40
2023-03-03T13:26:56.202Z,45.10
2023-03-03T13:29:31.054Z,47.30
2023-03-03T13:32:06.487Z,46.30
2023-03-03T13:34:43.899Z,47.63
2023-03-03T13:37:20.090Z,45.38
2023-03-03T13:39:57.127Z,46.55
2023-03-03T13:42:30.235Z,49.33
2023-03-03T13:45:01.448Z,47.83
2023-03-03T13:47:34.983Z,46.90
2023-03-03T13:50:18.262Z,56.20
2023-03-03T13:52:58.023Z,48.75
2023-03-03T13:55:30.474Z,48.30
2023-03-03T13:58:05.527Z,47.38
2023-03-03T14:00:45.168Z,50.40
2023-03-03T14:03:23.994Z,48.70
2023-03-03T14:05:53.435Z,47.80
2023-03-03T14:08:44.859Z,47.00
2023-03-03T14:11:20.244Z,48.45
2023-03-03T14:13:57.598Z,47.72
2023-03-03T14:16:41.070Z,47.03
2023-03-03T14:19:17.355Z,61.67
2023-03-03T14:21:52.817Z,46.60
2023-03-03T14:24:23.017Z,47.35
2023-03-03T14:26:52.422Z,46.40
2023-03-03T14:29:32.183Z,51.90
2023-03-03T14:32:03.133Z,49.83
2023-03-03T14:34:37.363Z,45.60
2023-03-03T14:37:26.154Z,47.35
2023-03-03T14:40:17.809Z,47.45
2023-03-03T14:42:49.788Z,46.92
2023-03-03T14:45:29.831Z,46.47
2023-03-03T14:48:00.636Z,47.17
2023-03-03T14:50:38.372Z,65.38
2023-03-03T14:53:34.923Z,62.42
2023-03-03T14:56:23.664Z,46.40
2023-03-03T14:58:52.248Z,48.40
2023-03-03T15:01:30.806Z,47.70
2023-03-03T15:04:04.495Z,46.20
2023-03-03T15:06:38.334Z,46.25
2023-03-03T15:09:30.691Z,54.95
2023-03-03T15:11:59.956Z,45.83
2023-03-03T15:14:33.161Z,46.30
2023-03-03T15:17:20.467Z,46.10
2023-03-03T15:20:06.358Z,45.95
2023-03-03T15:22:46.523Z,47.85
2023-03-03T15:25:34.657Z,46.30
2023-03-03T15:28:22.573Z,65.07
2023-03-03T15:30:56.021Z,47.00
2023-03-03T15:33:30.589Z,50.67
2023-03-03T15:36:06.024Z,47.00
2023-03-03T15:38:44.854Z,48.35
2023-03-03T15:41:26.552Z,47.20
2023-03-03T15:44:13.532Z,51.33
2023-03-03T15:46:53.905Z,47.90
2023-03-03T15:49:45.796Z,57.00
2023-03-03T15:52:29.533Z,46.73
2023-03-03T15:55:11.315Z,46.33
2023-03-03T15:57:50.675Z,44.97
2023-03-03T16:00:36.661Z,45.47
2023-03-03T16:03:15.300Z,45.13
2023-03-03T16:05:53.473Z,47.08
2023-03-03T16:08:30.866Z,45.83
2023-03-03T16:11:07.877Z,43.72
2023-03-03T16:14:01.701Z,53.72
2023-03-03T16:16:43.434Z,55.28
2023-03-03T16:19:22.024Z,49.47
2023-03-03T16:22:11.786Z,47.72
2023-03-03T16:24:52.778Z,47.30
2023-03-03T16:27:28.860Z,47.53
2023-03-03T16:30:10.178Z,45.50
2023-03-03T16:32:42.343Z,45.80
2023-03-03T16:35:23.213Z,53.60
2023-03-03T16:38:03.035Z,44.65
2023-03-03T16:40:37.737Z,47.65
2023-03-03T16:43:19.775Z,46.97
2023-03-03T16:45:47.903Z,49.33
2023-03-03T16:48:23.641Z,48.75
2023-03-03T16:51:04.016Z,64.60
2023-03-03T16:54:03.889Z,53.90
2023-03-03T16:56:39.863Z,50.22
2023-03-03T16:59:23.201Z,58.67
2023-03-03T17:01:58.948Z,55.50
2023-03-03T17:04:40.448Z,46.10
2023-03-03T17:07:20.586Z,46.53
2023-03-03T17:10:12.902Z,47.30
2023-03-03T17:12:55.001Z,47.67
2023-03-03T17:15:43.650Z,52.60
2023-03-03T17:18:17.934Z,46.83
2023-03-03T17:20:49.568Z,66.17
2023-03-03T17:23:42.165Z,45.50
2023-03-03T17:26:26.889Z,49.70
2023-03-03T17:29:09.015Z,59.78
2023-03-03T17:31:46.215Z,48.38
2023-03-03T17:34:29.650Z,46.65
2023-03-03T17:37:07.306Z,55.17
2023-03-03T17:40:11.248Z,65.57
2023-03-03T17:42:47.412Z,57.85
2023-03-03T17:45:18.022Z,80.93
2023-03-03T17:47:59.447Z,62.58
2023-03-03T17:51:11.218Z,64.47
2023-03-03T17:54:13.469Z,47.58
2023-03-03T17:56:48.375Z,51.10
2023-03-03T17:59:38.400Z,56.10
2023-03-03T18:02:32.160Z,90.82
2023-03-03T18:05:37.508Z,65.30
2023-03-03T18:08:24.225Z,79.90
2023-03-03T18:11:24.449Z,93.57
2023-03-03T18:14:08.036Z,67.03
2023-03-03T18:16:52.399Z,57.13
2023-03-03T18:19:37.872Z,71.67
2023-03-03T18:22:12.227Z,46.97
2023-03-03T18:24:54.481Z,56.75
2023-03-03T18:27:37.329Z,59.22
2023-03-03T18:30:24.863Z,57.33
2023-03-03T18:33:11.798Z,59.47
2023-03-03T18:35:43.791Z,81.97
2023-03-03T18:38:35.653Z,70.78
2023-03-03T18:41:04.627Z,75.85
2023-03-03T18:43:58.238Z,62.70
2023-03-03T18:46:51.230Z,70.88
2023-03-03T18:49:19.607Z,51.03
2023-03-03T18:52:23.269Z,61.22
2023-03-03T18:55:20.428Z,49.38
2023-03-03T18:58:17.994Z,47.30
2023-03-03T19:00:48.144Z,52.92
2023-03-03T19:03:26.776Z,45.80
2023-03-03T19:05:57.706Z,58.40
2023-03-03T19:08:29.137Z,46.78
2023-03-03T19:10:59.067Z,48.60
2023-03-03T19:13:49.660Z,52.10
2023-03-03T19:16:39.245Z,54.22
2023-03-03T19:19:13.614Z,77.35
2023-03-03T19:21:43.666Z,46.78
2023-03-03T19:24:34.737Z,47.80
2023-03-03T19:27:31.160Z,47.72
2023-03-03T19:30:45.645Z,53.27
2023-03-03T19:33:45.453Z,56.33
2023-03-03T19:36:37.257Z,55.55
2023-03-03T19:39:33.280Z,58.28
2023-03-03T19:42:12.783Z,55.05
2023-03-03T19:44:55.855Z,64.30
2023-03-03T19:47:34.506Z,76.03
2023-03-03T19:50:13.126Z,61.40
2023-03-03T19:52:45.522Z,78.13
2023-03-03T19:55:23.788Z,41.60
2023-03-03T19:58:02.947Z,43.63
2023-03-03T20:00:39.158Z,44.10
2023-03-03T20:03:35.844Z,43.08
2023-03-03T20:06:17.307Z,42.75
2023-03-03T20:08:52.240Z,45.78
2023-03-03T20:11:49.441Z,44.93
2023-03-03T20:14:32.204Z,42.90
2023-03-03T20:17:13.294Z,43.63
2023-03-03T20:19:53.256Z,43.10
2023-03-03T20:22:28.884Z,44.60
2023-03-03T20:25:10.907Z,42.70
2023-03-03T20:27:48.361Z,41.20
2023-03-03T20:30:28.744Z,43.30
2023-03-03T20:33:15.833Z,42.53
2023-03-03T20:35:53.798Z,45.00
2023-03-03T20:38:29.136Z,42.20
2023-03-03T20:41:06.331Z,40.43
2023-03-03T20:43:45.543Z,44.97
2023-03-03T20:46:22.896Z,42.22
2023-03-03T20:49:21.231Z,66.70
2023-03-03T20:51:57.503Z,42.70
2023-03-03T20:54:33.032Z,38.77
2023-03-03T20:57:11.650Z,39.40
2023-03-03T20:59:47.608Z,39.03
2023-03-03T21:02:23.243Z,38.75
2023-03-03T21:05:09.978Z,42.88
2023-03-03T21:07:40.883Z,42.33
2023-03-03T21:10:15.220Z,44.40
2023-03-03T21:12:43.619Z,43.20
2023-03-03T21:15:24.762Z,42.92
2023-03-03T21:17:54.835Z,42.17
2023-03-03T21:20:28.864Z,42.97
2023-03-03T21:22:57.862Z,39.77
2023-03-03T21:25:49.532Z,38.70
2023-03-03T21:28:19.396Z,39.17
2023-03-03T21:31:08.606Z,42.17
2023-03-03T21:33:42.627Z,44.50
2023-03-03T21:36:11.154Z,44.08
2023-03-03T21:38:40.151Z,42.50
2023-03-03T21:41:08.811Z,41.85
2023-03-03T21:43:38.472Z,42.00
2023-03-03T21:46:06.820Z,42.00
2023-03-03T21:48:34.723Z,41.90
2023-03-03T21:51:04.240Z,40.43
2023-03-03T21:53:32.048Z,39.90
2023-03-03T21:55:59.855Z,41.05
2023-03-03T21:58:27.820Z,39.63
2023-03-03T22:00:55.696Z,42.30
2023-03-03T22:03:23.706Z,42.40
2023-03-03T22:05:53.470Z,43.17
2023-03-03T22:08:23.612Z,41.40
2023-03-03T22:10:55.824Z,40.83
2023-03-03T22:13:24.986Z,40.37
2023-03-03T22:15:53.495Z,45.25
2023-03-03T22:18:21.529Z,47.17
2023-03-03T22:20:50.407Z,42.20
2023-03-03T22:23:19.570Z,46.90
2023-03-03T22:25:48.919Z,39.47
2023-03-03T22:28:16.753Z,42.00
2023-03-03T22:30:44.538Z,39.93
2023-03-03T22:33:12.411Z,41.10
2023-03-03T22:35:40.318Z,42.05
2023-03-03T22:38:08.167Z,40.63
2023-03-03T22:40:35.975Z,42.50
2023-03-03T22:43:06.303Z,40.03
2023-03-03T22:45:34.846Z,39.93
2023-03-03T22:48:02.660Z,41.80
2023-03-03T22:50:30.896Z,39.67
2023-03-03T22:52:58.802Z,43.73
2023-03-03T22:55:26.769Z,41.90
2023-03-03T22:57:54.609Z,43.80
2023-03-03T23:00:23.933Z,42.42
2023-03-03T23:02:51.827Z,42.05
2023-03-03T23:05:19.967Z,42.60
2023-03-03T23:07:47.913Z,43.30
2023-03-03T23:10:15.737Z,43.53
2023-03-03T23:12:43.617Z,45.13
2023-03-03T23:15:14.079Z,42.47
2023-03-03T23:17:44.681Z,39.40
2023-03-03T23:20:14.601Z,40.90
2023-03-03T23:22:42.444Z,42.10
2023-03-03T23:25:11.621Z,41.65
2023-03-03T23:27:39.800Z,39.90
2023-03-03T23:30:09.326Z,41.42
2023-03-03T23:32:37.212Z,41.80
2023-03-03T23:35:07.309Z,43.92
2023-03-03T23:37:35.157Z,40.27
2023-03-03T23:40:03.094Z,45.80
2023-03-03T23:42:31.450Z,41.90
2023-03-03T23:44:59.435Z,41.30
2023-03-03T23:47:27.291Z,41.45
2023-03-03T23:49:55.107Z,41.72
2023-03-03T23:52:24.251Z,39.80
2023-03-03T23:54:52.963Z,42.85
2023-03-03T23:57:20.930Z,42.20
2023-03-03T23:59:48.757Z,39.57
